Time;durP1;ratioP1;P1;durP2;ratioP2;P2;SDS_P1;SDS_P2;PMS_P1;PMS_P2;Temp;Humidity;BMP_temperature;BMP_pressure;BME280_temperature;BME280_humidity;BME280_pressure;Samples;Min_cycle;Max_cycle;Signal;HPM_P1;HPM_P2
2021/08/30 00:00:31;;;;;;;4.05;2.78;;;14.90;57.60;;;;;;4993072;28;20658;-46
2021/08/30 00:03:02;;;;;;;4.35;2.75;;;14.90;57.70;;;;;;4993648;28;20248;-54
2021/08/30 00:05:32;;;;;;;4.35;2.80;;;14.90;57.60;;;;;;5022655;22;20260;-51
2021/08/30 00:08:03;;;;;;;5.38;2.72;;;14.90;57.60;;;;;;5013058;28;20267;-45
2021/08/30 00:10:33;;;;;;;5.45;3.20;;;14.90;57.70;;;;;;5013117;28;20239;-59
2021/08/30 00:13:03;;;;;;;5.13;3.50;;;14.90;57.70;;;;;;5012964;28;20280;-54
2021/08/30 00:15:36;;;;;;;4.07;2.75;;;14.90;57.70;;;;;;5012533;28;20236;-50
2021/08/30 00:18:06;;;;;;;5.25;3.00;;;15.00;57.70;;;;;;5012493;28;20654;-51
2021/08/30 00:20:37;;;;;;;4.15;3.03;;;15.00;57.70;;;;;;5011483;28;20201;-44
2021/08/30 00:23:07;;;;;;;4.22;2.88;;;15.00;57.80;;;;;;5012500;28;20243;-42
2021/08/30 00:25:38;;;;;;;5.05;2.80;;;15.00;57.80;;;;;;5012569;28;20243;-43
2021/08/30 00:28:08;;;;;;;3.92;2.70;;;15.00;57.80;;;;;;5011948;28;20263;-48
2021/08/30 00:30:40;;;;;;;5.50;2.75;;;15.00;57.80;;;;;;5013010;28;20232;-46
2021/08/30 00:33:11;;;;;;;4.75;3.03;;;15.00;57.70;;;;;;5011885;28;20239;-48
2021/08/30 00:35:41;;;;;;;4.57;2.67;;;15.00;57.70;;;;;;5012083;28;20287;-42
2021/08/30 00:38:12;;;;;;;5.32;3.08;;;15.00;57.70;;;;;;5012187;28;20315;-46
2021/08/30 00:40:45;;;;;;;4.72;3.40;;;15.00;57.70;;;;;;5012300;28;20400;-56
2021/08/30 00:43:15;;;;;;;4.03;2.72;;;15.00;57.70;;;;;;5011799;28;20201;-49
2021/08/30 00:45:47;;;;;;;5.00;2.58;;;15.00;57.70;;;;;;5012123;28;20264;-47
2021/08/30 00:48:21;;;;;;;3.38;2.45;;;15.10;57.80;;;;;;5013997;28;20248;-48
2021/08/30 00:50:52;;;;;;;3.20;2.60;;;15.10;57.70;;;;;;5012347;28;20228;-43
2021/08/30 00:53:22;;;;;;;5.82;2.83;;;15.10;57.70;;;;;;5011217;28;20725;-45
2021/08/30 00:55:56;;;;;;;3.75;2.22;;;15.10;57.90;;;;;;5012328;28;20254;-51
2021/08/30 00:58:26;;;;;;;4.60;2.45;;;15.10;57.90;;;;;;5010673;28;20863;-43
2021/08/30 01:00:58;;;;;;;3.22;2.42;;;15.10;57.90;;;;;;5011730;28;20224;-57
2021/08/30 01:03:29;;;;;;;5.32;2.60;;;15.10;57.90;;;;;;5012421;28;20232;-43
2021/08/30 01:06:01;;;;;;;5.55;2.92;;;15.20;58.00;;;;;;5011415;28;20272;-51
2021/08/30 01:08:33;;;;;;;3.08;2.30;;;15.10;57.80;;;;;;5011058;28;20316;-49
2021/08/30 01:11:08;;;;;;;5.45;2.67;;;15.20;57.90;;;;;;5011151;28;20703;-45
2021/08/30 01:13:41;;;;;;;4.32;2.40;;;15.20;57.90;;;;;;5011897;28;20223;-52
2021/08/30 01:16:15;;;;;;;4.18;2.88;;;15.20;57.80;;;;;;5011238;28;20219;-49
2021/08/30 01:18:45;;;;;;;2.78;2.25;;;15.20;57.80;;;;;;5011644;28;20264;-54
2021/08/30 01:21:19;;;;;;;4.20;2.70;;;15.20;57.70;;;;;;5011581;28;20235;-46
2021/08/30 01:23:52;;;;;;;3.60;2.42;;;15.20;57.70;;;;;;5010922;28;20200;-51
2021/08/30 01:26:22;;;;;;;3.72;2.63;;;15.20;57.70;;;;;;5011639;28;20228;-51
2021/08/30 01:29:01;;;;;;;4.28;2.55;;;15.20;57.70;;;;;;5010994;28;20252;-47
2021/08/30 01:31:40;;;;;;;3.38;2.60;;;15.20;57.70;;;;;;5012005;28;20235;-43
2021/08/30 01:34:13;;;;;;;3.97;2.70;;;15.20;57.60;;;;;;5010763;28;20295;-51
2021/08/30 01:36:44;;;;;;;3.53;2.47;;;15.20;57.60;;;;;;5011962;28;20353;-44
2021/08/30 01:39:14;;;;;;;4.75;2.88;;;15.20;57.60;;;;;;5009998;28;20271;-50
2021/08/30 01:41:45;;;;;;;4.15;2.47;;;15.20;57.60;;;;;;5011601;28;20197;-53
2021/08/30 01:44:15;;;;;;;4.40;2.67;;;15.30;57.60;;;;;;5010907;28;20263;-52
2021/08/30 01:46:45;;;;;;;4.22;2.55;;;15.30;57.60;;;;;;5012211;28;20606;-47
2021/08/30 01:49:18;;;;;;;4.93;2.53;;;15.30;57.50;;;;;;5010601;28;20727;-41
2021/08/30 01:51:48;;;;;;;3.97;2.40;;;15.30;57.50;;;;;;5011549;28;20631;-44
2021/08/30 01:54:19;;;;;;;3.75;2.40;;;15.30;57.50;;;;;;5012690;28;20275;-42
2021/08/30 01:56:51;;;;;;;4.60;2.47;;;15.30;57.50;;;;;;5011071;28;20251;-44
2021/08/30 02:02:09;;;;;;;4.43;2.30;;;15.30;57.50;;;;;;5011568;28;20204;-42
2021/08/30 02:04:41;;;;;;;3.28;2.47;;;15.30;57.40;;;;;;5023904;22;20252;-49
2021/08/30 02:07:11;;;;;;;4.88;3.00;;;15.30;57.40;;;;;;5011663;28;20232;-48
2021/08/30 02:09:42;;;;;;;3.40;2.40;;;15.30;57.40;;;;;;5011585;28;20287;-48
2021/08/30 02:12:12;;;;;;;4.90;2.50;;;15.30;57.40;;;;;;5011699;28;20197;-47
2021/08/30 02:14:43;;;;;;;3.63;2.33;;;15.30;57.40;;;;;;5011722;28;20236;-48
2021/08/30 02:17:14;;;;;;;4.78;2.65;;;15.30;57.40;;;;;;5011389;28;20217;-46
2021/08/30 02:19:50;;;;;;;4.03;2.13;;;15.40;57.40;;;;;;5011239;28;20319;-48
2021/08/30 02:22:22;;;;;;;4.13;2.47;;;15.30;57.40;;;;;;5011509;28;20744;-47
2021/08/30 02:24:55;;;;;;;3.58;2.28;;;15.40;57.40;;;;;;5009491;28;20715;-50
2021/08/30 02:27:28;;;;;;;4.03;2.55;;;15.40;57.40;;;;;;5011255;28;20239;-51
2021/08/30 02:30:04;;;;;;;4.35;2.40;;;15.30;57.30;;;;;;5010066;28;20232;-49
2021/08/30 02:32:35;;;;;;;3.22;2.20;;;15.40;57.40;;;;;;5009941;28;20688;-46
2021/08/30 02:35:08;;;;;;;4.05;2.22;;;15.40;57.30;;;;;;5009748;28;20307;-47
2021/08/30 02:37:40;;;;;;;4.22;2.53;;;15.40;57.30;;;;;;5010651;28;20268;-47
2021/08/30 02:40:11;;;;;;;5.18;2.92;;;15.40;57.30;;;;;;5009432;28;20236;-48
2021/08/30 02:42:41;;;;;;;3.95;2.63;;;15.40;57.30;;;;;;5010819;28;20236;-47
2021/08/30 02:45:12;;;;;;;4.65;2.65;;;15.40;57.30;;;;;;5010441;28;20259;-47
2021/08/30 02:47:43;;;;;;;4.53;2.85;;;15.40;57.20;;;;;;5010595;28;20768;-47
2021/08/30 02:50:15;;;;;;;5.28;2.80;;;15.40;57.20;;;;;;5010482;28;20254;-53
2021/08/30 02:52:46;;;;;;;5.10;3.00;;;15.40;57.20;;;;;;5010349;28;20197;-54
2021/08/30 02:55:16;;;;;;;6.18;2.97;;;15.40;57.20;;;;;;5010491;28;20228;-55
2021/08/30 02:57:48;;;;;;;5.03;3.28;;;15.40;57.20;;;;;;5009899;28;20217;-49
2021/08/30 03:00:19;;;;;;;6.22;3.72;;;15.50;57.20;;;;;;5009657;28;20197;-53
2021/08/30 03:02:50;;;;;;;6.20;4.15;;;15.50;57.20;;;;;;5009926;28;20736;-48
2021/08/30 03:05:22;;;;;;;8.25;4.00;;;15.50;57.20;;;;;;5007311;22;20293;-50
2021/08/30 03:07:53;;;;;;;7.43;4.30;;;15.50;57.20;;;;;;4990197;28;20219;-58
2021/08/30 03:10:23;;;;;;;9.25;5.65;;;15.50;57.10;;;;;;4990774;28;20277;-53
2021/08/30 03:12:54;;;;;;;9.20;5.32;;;15.50;57.10;;;;;;4990466;28;20413;-55
2021/08/30 03:15:26;;;;;;;10.55;6.13;;;15.50;57.10;;;;;;4990562;28;20672;-47
2021/08/30 03:17:56;;;;;;;10.05;5.10;;;15.50;57.00;;;;;;4989988;28;20264;-51
2021/08/30 03:20:30;;;;;;;10.57;6.22;;;15.50;57.00;;;;;;4990227;28;20237;-55
2021/08/30 03:23:00;;;;;;;9.30;5.88;;;15.50;57.00;;;;;;4989704;28;20233;-60
2021/08/30 03:25:33;;;;;;;10.80;6.05;;;15.50;57.00;;;;;;4990354;28;20237;-55
2021/08/30 03:28:03;;;;;;;10.10;5.20;;;15.50;56.90;;;;;;4990510;28;20261;-47
2021/08/30 03:30:34;;;;;;;8.85;5.30;;;15.50;56.90;;;;;;4989914;28;20198;-52
2021/08/30 03:33:04;;;;;;;8.65;5.38;;;15.60;56.90;;;;;;4990822;28;20284;-52
2021/08/30 03:35:36;;;;;;;8.63;5.40;;;15.50;56.90;;;;;;4989853;28;20285;-47
2021/08/30 03:38:07;;;;;;;8.10;5.47;;;15.50;56.90;;;;;;4990038;28;20253;-59
2021/08/30 03:40:37;;;;;;;10.48;5.18;;;15.60;56.90;;;;;;4991282;28;20232;-59
2021/08/30 03:43:08;;;;;;;8.25;4.97;;;15.60;56.90;;;;;;4993588;28;20716;-50
2021/08/30 03:45:38;;;;;;;9.60;4.82;;;15.60;56.90;;;;;;4993986;28;20244;-54
2021/08/30 03:48:09;;;;;;;8.38;5.28;;;15.60;56.80;;;;;;4993657;28;20260;-58
2021/08/30 03:50:41;;;;;;;9.00;5.18;;;15.60;56.80;;;;;;4994004;28;20681;-51
2021/08/30 03:53:12;;;;;;;8.82;4.95;;;15.60;56.70;;;;;;4993865;28;20236;-47
2021/08/30 03:55:42;;;;;;;10.02;5.68;;;15.60;56.70;;;;;;4994222;28;20299;-50
2021/08/30 03:58:13;;;;;;;8.30;5.43;;;15.60;56.70;;;;;;4995430;28;20319;-58
2021/08/30 04:00:43;;;;;;;9.10;5.07;;;15.60;56.60;;;;;;4993519;28;20260;-42
2021/08/30 04:03:14;;;;;;;8.05;4.50;;;15.60;56.60;;;;;;4993624;28;20237;-49
2021/08/30 04:05:46;;;;;;;7.88;4.68;;;15.60;56.60;;;;;;4994403;28;20369;-47
2021/08/30 04:08:16;;;;;;;8.43;4.47;;;15.60;56.60;;;;;;4993169;28;20218;-46
2021/08/30 04:10:47;;;;;;;8.38;4.75;;;15.60;56.60;;;;;;4993482;28;20240;-47
2021/08/30 04:13:17;;;;;;;9.55;4.93;;;15.60;56.60;;;;;;4993060;28;20198;-49
2021/08/30 04:15:48;;;;;;;8.65;4.22;;;15.60;56.60;;;;;;4993326;28;20678;-49
2021/08/30 04:18:18;;;;;;;7.15;4.57;;;15.60;56.60;;;;;;4993185;28;20669;-51
2021/08/30 04:20:50;;;;;;;7.70;4.35;;;15.60;56.60;;;;;;4993335;28;20680;-50
2021/08/30 04:23:21;;;;;;;6.60;4.40;;;15.60;56.60;;;;;;4993613;28;20604;-55
2021/08/30 04:25:51;;;;;;;7.22;4.72;;;15.60;56.60;;;;;;4991801;28;20277;-52
2021/08/30 04:28:22;;;;;;;7.78;4.70;;;15.60;56.50;;;;;;4992062;28;20253;-51
2021/08/30 04:30:52;;;;;;;9.20;4.95;;;15.60;56.50;;;;;;4991799;28;20285;-53
2021/08/30 04:33:23;;;;;;;6.72;3.90;;;15.70;56.50;;;;;;4992493;28;20197;-57
2021/08/30 04:35:55;;;;;;;10.05;5.55;;;15.60;56.40;;;;;;4991868;28;20237;-47
2021/08/30 04:38:26;;;;;;;10.13;4.88;;;15.60;56.40;;;;;;4992578;28;20312;-47
2021/08/30 04:40:56;;;;;;;9.65;5.72;;;15.70;56.60;;;;;;4993113;28;20193;-46
2021/08/30 04:43:26;;;;;;;9.18;5.25;;;15.70;56.80;;;;;;4992291;28;20370;-43
2021/08/30 04:45:57;;;;;;;9.88;4.70;;;15.70;56.80;;;;;;4993401;28;20347;-45
2021/08/30 04:48:27;;;;;;;9.18;5.47;;;15.70;56.80;;;;;;4992341;28;20709;-47
2021/08/30 04:51:00;;;;;;;8.40;4.63;;;15.70;56.70;;;;;;4991831;28;20670;-46
2021/08/30 04:53:30;;;;;;;10.52;5.40;;;15.70;56.70;;;;;;4992446;28;20631;-48
2021/08/30 04:56:00;;;;;;;9.38;5.15;;;15.80;56.70;;;;;;4994170;28;20644;-46
2021/08/30 04:58:31;;;;;;;10.77;4.95;;;15.70;56.60;;;;;;5010746;28;20696;-44
2021/08/30 05:01:01;;;;;;;7.20;4.88;;;15.70;56.60;;;;;;5011667;28;20289;-45
2021/08/30 05:03:32;;;;;;;7.88;4.68;;;15.70;56.60;;;;;;5008686;28;20310;-49
2021/08/30 05:06:04;;;;;;;7.65;4.65;;;15.70;56.60;;;;;;4990556;28;20233;-49
2021/08/30 05:08:34;;;;;;;7.05;4.35;;;15.70;56.60;;;;;;4991359;28;20257;-51
2021/08/30 05:11:05;;;;;;;7.43;4.70;;;15.70;56.60;;;;;;4991266;28;20236;-49
2021/08/30 05:13:36;;;;;;;6.82;4.38;;;15.70;56.50;;;;;;4991564;28;20228;-54
2021/08/30 05:16:07;;;;;;;7.72;4.68;;;15.70;56.50;;;;;;4992268;28;20666;-52
2021/08/30 05:18:39;;;;;;;8.18;4.65;;;15.70;56.50;;;;;;4991850;28;20225;-49
2021/08/30 05:21:12;;;;;;;7.65;4.82;;;15.80;56.50;;;;;;4991063;28;20197;-49
2021/08/30 05:23:43;;;;;;;7.63;5.07;;;15.70;56.50;;;;;;4991499;28;20201;-59
2021/08/30 05:26:14;;;;;;;8.98;5.13;;;15.70;56.40;;;;;;4992181;28;20201;-54
2021/08/30 05:28:45;;;;;;;7.65;4.75;;;15.80;56.50;;;;;;4991351;28;20741;-44
2021/08/30 05:31:16;;;;;;;8.05;5.00;;;15.70;56.40;;;;;;4992435;28;20216;-42
2021/08/30 05:33:47;;;;;;;8.35;5.22;;;15.80;56.40;;;;;;4991386;28;20870;-46
2021/08/30 05:36:20;;;;;;;8.82;5.18;;;15.70;56.30;;;;;;4990520;28;20200;-53
2021/08/30 05:38:51;;;;;;;8.65;4.90;;;15.70;56.30;;;;;;4989585;28;20225;-46
2021/08/30 05:41:22;;;;;;;8.93;5.22;;;15.80;56.30;;;;;;4990448;28;20260;-48
2021/08/30 05:43:53;;;;;;;7.60;4.63;;;15.70;56.20;;;;;;4990639;28;20564;-57
2021/08/30 05:46:24;;;;;;;7.82;4.70;;;15.70;56.20;;;;;;4990214;28;20205;-51
2021/08/30 05:48:55;;;;;;;8.43;5.40;;;15.80;56.30;;;;;;4991104;28;20697;-45
2021/08/30 05:51:28;;;;;;;8.48;5.07;;;15.70;56.20;;;;;;4991344;28;20197;-47
2021/08/30 05:53:59;;;;;;;9.75;5.45;;;15.70;56.20;;;;;;4991854;28;21001;-53
2021/08/30 05:56:30;;;;;;;7.28;4.65;;;15.70;56.20;;;;;;4991540;28;20197;-50
2021/08/30 05:59:01;;;;;;;11.80;5.22;;;15.70;56.20;;;;;;4990653;28;20610;-49
2021/08/30 06:01:35;;;;;;;7.43;4.45;;;15.70;56.20;;;;;;4990829;28;20201;-45
2021/08/30 06:04:06;;;;;;;6.82;4.95;;;15.70;56.20;;;;;;4990869;28;20284;-48
2021/08/30 06:06:39;;;;;;;8.27;4.90;;;15.70;56.20;;;;;;4990383;28;20665;-44
2021/08/30 06:09:10;;;;;;;9.57;5.07;;;15.70;56.20;;;;;;4991734;28;20228;-45
2021/08/30 06:11:41;;;;;;;7.68;4.82;;;15.70;56.10;;;;;;4990870;28;20212;-53
2021/08/30 06:14:12;;;;;;;8.52;5.07;;;15.70;56.20;;;;;;4991384;28;20204;-56
2021/08/30 06:16:43;;;;;;;8.45;5.13;;;15.70;56.10;;;;;;4991718;28;20201;-61
2021/08/30 06:19:14;;;;;;;7.88;4.55;;;15.70;56.10;;;;;;4991520;28;20229;-60
2021/08/30 06:21:47;;;;;;;8.95;5.05;;;15.70;56.10;;;;;;4991060;28;20220;-43
2021/08/30 06:24:18;;;;;;;9.77;4.68;;;15.70;56.10;;;;;;4990829;28;20193;-53
2021/08/30 06:26:49;;;;;;;7.38;4.38;;;15.70;56.10;;;;;;4991360;28;20201;-52
2021/08/30 06:29:20;;;;;;;8.05;4.90;;;15.60;56.00;;;;;;4990713;28;20596;-51
2021/08/30 06:31:52;;;;;;;9.55;5.10;;;15.70;56.10;;;;;;4991380;28;20201;-47
2021/08/30 06:34:24;;;;;;;6.93;4.57;;;15.60;56.10;;;;;;4990615;28;20280;-56
2021/08/30 06:36:57;;;;;;;8.60;5.13;;;15.60;56.10;;;;;;4991055;28;20208;-56
2021/08/30 06:39:28;;;;;;;8.65;5.63;;;15.60;56.10;;;;;;4990535;28;20232;-58
2021/08/30 06:41:59;;;;;;;7.43;5.07;;;15.60;56.10;;;;;;4991262;28;20197;-60
2021/08/30 06:44:30;;;;;;;8.63;5.57;;;15.60;56.10;;;;;;4990879;28;20689;-60
2021/08/30 06:47:01;;;;;;;8.65;5.68;;;15.60;56.00;;;;;;4990776;28;20194;-56
2021/08/30 06:49:32;;;;;;;9.52;6.20;;;15.60;56.00;;;;;;4991599;28;20218;-52
2021/08/30 06:52:05;;;;;;;8.80;3.80;;;15.60;56.00;;;;;;4990579;28;20681;-62
2021/08/30 06:54:36;;;;;;;12.45;5.00;;;15.60;54.20;;;;;;4993919;28;20204;-64
2021/08/30 06:57:08;;;;;;;11.13;4.40;;;15.50;52.90;;;;;;4991774;28;20219;-50
2021/08/30 06:59:39;;;;;;;16.63;4.45;;;15.40;51.40;;;;;;4991507;28;20586;-53
2021/08/30 07:02:10;;;;;;;12.05;4.00;;;15.30;51.80;;;;;;4991926;28;20222;-53
2021/08/30 07:04:41;;;;;;;13.23;5.65;;;15.20;52.30;;;;;;5011124;23;20551;-51
2021/08/30 07:07:14;;;;;;;10.93;4.68;;;15.20;52.80;;;;;;5010468;28;20196;-46
2021/08/30 07:09:45;;;;;;;8.98;4.13;;;15.20;53.00;;;;;;5010555;28;20274;-47
2021/08/30 07:12:16;;;;;;;9.18;3.80;;;15.10;53.30;;;;;;5010582;28;20203;-48
2021/08/30 07:14:47;;;;;;;12.13;4.65;;;15.10;53.40;;;;;;5010428;28;20657;-51
2021/08/30 07:17:17;;;;;;;11.18;4.43;;;15.10;53.50;;;;;;5014539;28;20201;-51
2021/08/30 07:19:48;;;;;;;9.73;4.55;;;15.00;53.60;;;;;;5013931;28;20236;-50
2021/08/30 07:22:21;;;;;;;9.38;4.43;;;15.00;53.70;;;;;;5013970;28;20205;-50
2021/08/30 07:24:52;;;;;;;8.20;4.22;;;15.00;53.80;;;;;;5014398;28;20193;-50
2021/08/30 07:27:23;;;;;;;8.07;4.38;;;15.00;53.90;;;;;;5014503;28;20567;-48
2021/08/30 07:29:54;;;;;;;8.05;4.07;;;15.00;53.90;;;;;;5014699;28;20204;-50
2021/08/30 07:32:25;;;;;;;9.52;4.75;;;15.00;54.00;;;;;;5014403;28;20661;-48
2021/08/30 07:34:56;;;;;;;8.60;4.00;;;15.00;54.10;;;;;;5012204;28;20208;-48
2021/08/30 07:37:29;;;;;;;9.57;4.97;;;15.00;54.10;;;;;;5012893;28;20209;-51
2021/08/30 07:40:00;;;;;;;9.00;4.10;;;15.00;54.20;;;;;;5013798;28;20224;-47
2021/08/30 07:42:31;;;;;;;9.13;4.30;;;15.00;54.30;;;;;;5013490;28;20216;-47
2021/08/30 07:45:02;;;;;;;6.90;4.00;;;15.00;54.30;;;;;;5013079;28;20204;-49
2021/08/30 07:47:33;;;;;;;8.18;4.03;;;15.00;54.30;;;;;;5013645;28;20203;-50
2021/08/30 07:50:05;;;;;;;11.02;4.78;;;15.00;54.40;;;;;;5013325;28;20197;-47
2021/08/30 07:52:38;;;;;;;6.10;3.97;;;15.00;54.50;;;;;;5013577;28;20255;-54
2021/08/30 07:55:10;;;;;;;6.28;3.90;;;15.00;54.60;;;;;;5012619;28;20219;-53
2021/08/30 07:57:41;;;;;;;7.40;4.38;;;15.00;54.60;;;;;;5013011;28;20208;-52
2021/08/30 08:00:13;;;;;;;7.97;4.30;;;15.00;54.60;;;;;;5011187;28;20228;-57
2021/08/30 08:02:44;;;;;;;7.88;3.95;;;15.00;54.70;;;;;;5013051;28;20562;-53
2021/08/30 08:05:16;;;;;;;7.78;4.57;;;15.00;54.70;;;;;;5012221;23;20230;-50
2021/08/30 08:07:49;;;;;;;8.07;4.25;;;15.00;55.30;;;;;;4993633;28;20222;-54
2021/08/30 08:10:20;;;;;;;7.55;3.72;;;15.00;54.80;;;;;;4993747;28;20213;-51
2021/08/30 08:12:51;;;;;;;7.53;4.15;;;15.00;54.80;;;;;;4993319;28;20208;-50
2021/08/30 08:15:22;;;;;;;7.20;3.83;;;15.00;55.00;;;;;;4993177;28;20205;-48
2021/08/30 08:17:53;;;;;;;10.45;4.75;;;15.00;55.10;;;;;;4993232;28;20716;-50
2021/08/30 08:20:24;;;;;;;7.97;4.38;;;15.00;55.10;;;;;;4993316;28;20229;-49
2021/08/30 08:22:57;;;;;;;8.30;4.30;;;15.00;55.10;;;;;;4992922;28;20193;-50
2021/08/30 08:25:28;;;;;;;7.03;4.47;;;15.00;55.10;;;;;;4992956;28;20654;-48
2021/08/30 08:28:03;;;;;;;7.28;3.63;;;15.00;55.10;;;;;;4992202;28;20221;-48
2021/08/30 08:30:34;;;;;;;5.75;3.85;;;15.00;55.10;;;;;;4993257;28;20193;-56
2021/08/30 08:33:05;;;;;;;5.97;3.80;;;15.00;55.10;;;;;;4993175;28;20579;-58
2021/08/30 08:35:36;;;;;;;8.77;4.25;;;14.90;55.10;;;;;;4992686;28;20677;-53
2021/08/30 08:38:09;;;;;;;6.63;4.20;;;15.00;55.20;;;;;;4992234;28;20220;-56
2021/08/30 08:40:40;;;;;;;6.10;3.75;;;15.00;55.20;;;;;;4991533;28;20645;-61
2021/08/30 08:43:15;;;;;;;9.15;4.40;;;15.00;55.20;;;;;;4992148;28;20209;-47
2021/08/30 08:45:46;;;;;;;7.13;4.25;;;14.90;55.10;;;;;;4991031;28;20200;-56
2021/08/30 08:48:17;;;;;;;7.80;4.03;;;15.00;55.80;;;;;;4992323;28;20697;-60
2021/08/30 08:50:48;;;;;;;5.93;3.47;;;15.00;55.20;;;;;;4991464;28;20198;-61
2021/08/30 08:53:20;;;;;;;6.72;4.03;;;15.00;55.20;;;;;;4994261;28;20202;-60
2021/08/30 08:55:50;;;;;;;6.00;3.85;;;14.90;55.20;;;;;;4992499;28;20233;-56
2021/08/30 08:58:21;;;;;;;7.15;3.72;;;14.90;55.20;;;;;;4992633;28;20288;-52
2021/08/30 09:01:03;;;;;;;5.20;3.65;;;14.90;55.20;;;;;;4992532;28;20244;-53
2021/08/30 09:03:33;;;;;;;6.85;3.78;;;14.90;55.20;;;;;;5004358;28;20232;-51
2021/08/30 09:06:04;;;;;;;6.05;3.38;;;14.90;55.30;;;;;;5005316;23;20253;-46
2021/08/30 09:08:41;;;;;;;5.22;3.40;;;14.90;55.20;;;;;;4991944;28;20301;-58
2021/08/30 09:11:19;;;;;;;7.03;3.75;;;14.90;55.30;;;;;;4991944;28;20198;-54
2021/08/30 09:13:53;;;;;;;7.63;3.80;;;14.90;55.30;;;;;;4991682;28;20280;-55
2021/08/30 09:16:23;;;;;;;6.50;4.05;;;14.90;55.30;;;;;;4992306;28;20293;-57
2021/08/30 09:19:03;;;;;;;5.43;3.50;;;14.90;55.30;;;;;;4991605;28;20295;-57
2021/08/30 09:21:34;;;;;;;6.03;3.80;;;14.80;55.30;;;;;;4991819;28;20201;-57
2021/08/30 09:24:14;;;;;;;5.55;3.65;;;14.80;55.30;;;;;;4991441;28;20724;-57
2021/08/30 09:26:48;;;;;;;6.88;3.70;;;14.80;55.40;;;;;;4991551;28;20239;-54
2021/08/30 09:29:20;;;;;;;5.65;3.63;;;14.80;55.30;;;;;;4991175;28;20280;-57
2021/08/30 09:32:03;;;;;;;5.93;3.88;;;14.80;55.40;;;;;;4991673;28;20654;-58
2021/08/30 09:34:35;;;;;;;5.68;3.70;;;14.80;55.40;;;;;;4990935;28;20206;-49
2021/08/30 09:37:05;;;;;;;4.82;3.75;;;14.80;55.40;;;;;;4991099;28;20237;-53
2021/08/30 09:39:38;;;;;;;6.85;3.90;;;14.80;55.40;;;;;;4990425;28;20261;-50
2021/08/30 09:42:09;;;;;;;6.20;3.65;;;14.80;55.40;;;;;;4992094;28;20259;-45
2021/08/30 09:44:40;;;;;;;6.53;3.97;;;14.80;55.40;;;;;;5007622;28;20279;-55
2021/08/30 09:47:13;;;;;;;5.18;3.28;;;14.80;55.40;;;;;;5010165;28;20701;-58
2021/08/30 09:49:44;;;;;;;5.70;3.95;;;14.80;55.50;;;;;;4992673;28;20304;-50
2021/08/30 09:52:14;;;;;;;7.35;3.50;;;14.80;55.40;;;;;;4991352;28;20296;-41
2021/08/30 09:54:46;;;;;;;6.20;3.83;;;14.80;55.60;;;;;;4991640;28;20228;-46
2021/08/30 09:57:17;;;;;;;4.80;3.20;;;14.80;55.60;;;;;;5003365;28;20235;-58
2021/08/30 09:59:48;;;;;;;5.80;3.20;;;14.70;55.50;;;;;;5009970;28;20267;-51
2021/08/30 10:02:18;;;;;;;6.05;3.88;;;14.80;55.60;;;;;;4990612;28;20232;-48
2021/08/30 10:04:49;;;;;;;5.15;3.30;;;14.70;56.10;;;;;;4991458;28;20288;-55
2021/08/30 10:07:19;;;;;;;5.75;3.35;;;14.70;55.50;;;;;;4991535;28;20232;-58
2021/08/30 10:09:52;;;;;;;5.40;3.13;;;14.70;55.50;;;;;;4991025;28;20233;-57
2021/08/30 10:12:22;;;;;;;6.88;3.70;;;14.70;55.50;;;;;;4991412;28;20193;-56
2021/08/30 10:14:53;;;;;;;6.28;3.28;;;14.70;55.50;;;;;;4990106;28;20287;-58
2021/08/30 10:17:23;;;;;;;4.45;3.40;;;14.70;55.60;;;;;;4996289;28;20722;-57
2021/08/30 10:20:00;;;;;;;5.72;3.40;;;14.70;55.60;;;;;;5007137;28;20415;-57
2021/08/30 10:22:30;;;;;;;5.68;3.20;;;14.70;55.60;;;;;;5010099;28;20204;-58
2021/08/30 10:25:03;;;;;;;5.07;3.42;;;14.70;55.60;;;;;;5010503;28;20236;-57
2021/08/30 10:27:34;;;;;;;5.68;3.35;;;14.70;55.60;;;;;;5010941;28;20255;-48
2021/08/30 10:30:10;;;;;;;5.10;3.25;;;14.70;55.70;;;;;;5010240;28;20740;-51
2021/08/30 10:32:41;;;;;;;6.43;3.60;;;14.60;55.60;;;;;;5010921;28;20243;-56
2021/08/30 10:35:16;;;;;;;5.53;3.35;;;14.60;55.60;;;;;;5010670;28;20204;-51
2021/08/30 10:37:53;;;;;;;4.93;3.17;;;14.60;55.70;;;;;;5010598;28;20260;-54
2021/08/30 10:40:26;;;;;;;4.55;3.17;;;14.60;55.70;;;;;;5010461;28;20315;-54
2021/08/30 10:43:04;;;;;;;5.00;3.50;;;14.60;55.70;;;;;;5010512;28;20237;-54
2021/08/30 10:45:41;;;;;;;5.15;2.83;;;14.60;55.70;;;;;;5011111;28;20665;-56
2021/08/30 10:48:12;;;;;;;5.07;3.20;;;14.60;55.70;;;;;;5009944;28;20220;-47
2021/08/30 10:50:47;;;;;;;4.82;3.00;;;14.60;55.70;;;;;;5010711;28;20224;-54
2021/08/30 10:53:20;;;;;;;4.55;3.30;;;14.60;55.70;;;;;;4994687;28;20668;-57
2021/08/30 10:55:56;;;;;;;6.50;3.53;;;14.60;55.70;;;;;;4995472;28;20643;-57
2021/08/30 10:58:28;;;;;;;5.20;3.72;;;14.60;55.80;;;;;;4994383;28;20248;-58
2021/08/30 11:00:58;;;;;;;4.07;2.80;;;14.60;55.80;;;;;;4995056;28;20313;-57
2021/08/30 11:03:33;;;;;;;6.57;3.35;;;14.60;55.80;;;;;;4994624;28;20230;-56
2021/08/30 11:06:05;;;;;;;6.50;3.97;;;14.60;55.80;;;;;;5007500;22;20228;-58
2021/08/30 11:08:36;;;;;;;6.80;3.85;;;14.50;55.80;;;;;;4995234;28;20229;-58
2021/08/30 11:11:15;;;;;;;4.13;2.90;;;14.50;55.70;;;;;;4993891;28;20726;-57
2021/08/30 11:13:46;;;;;;;5.55;3.40;;;14.50;55.80;;;;;;4994663;28;20232;-57
2021/08/30 11:16:22;;;;;;;5.28;3.17;;;14.50;55.80;;;;;;4994390;28;20634;-58
2021/08/30 11:18:57;;;;;;;4.25;3.08;;;14.50;55.80;;;;;;4995061;28;20584;-57
2021/08/30 11:21:47;;;;;;;5.60;3.53;;;14.50;55.80;;;;;;4994229;28;20265;-58
2021/08/30 11:24:32;;;;;;;4.90;3.50;;;14.50;55.80;;;;;;4994748;28;20209;-48
2021/08/30 11:27:07;;;;;;;4.35;2.85;;;14.50;55.80;;;;;;4994988;28;20411;-50
2021/08/30 11:29:42;;;;;;;4.18;2.47;;;14.50;55.70;;;;;;4994484;28;20264;-47
2021/08/30 11:32:13;;;;;;;4.75;2.95;;;14.50;55.80;;;;;;4994257;28;20201;-49
2021/08/30 11:34:43;;;;;;;4.97;2.83;;;14.50;55.80;;;;;;4994887;28;20288;-47
2021/08/30 11:37:15;;;;;;;4.38;3.10;;;14.50;55.80;;;;;;4994713;28;20229;-54
2021/08/30 11:39:47;;;;;;;4.63;2.75;;;14.50;55.80;;;;;;4994113;28;20268;-49
2021/08/30 11:42:20;;;;;;;4.97;2.95;;;14.50;55.80;;;;;;4994365;28;20237;-48
2021/08/30 11:44:50;;;;;;;4.78;2.92;;;14.50;55.80;;;;;;4994847;28;20244;-46
2021/08/30 11:47:21;;;;;;;4.75;3.15;;;14.50;55.80;;;;;;4994841;28;20206;-47
2021/08/30 11:49:51;;;;;;;5.22;3.08;;;14.50;55.80;;;;;;4994642;28;20681;-46
2021/08/30 11:52:22;;;;;;;4.72;3.00;;;14.50;55.90;;;;;;4994028;28;20240;-48
2021/08/30 11:55:02;;;;;;;5.75;3.05;;;14.50;55.80;;;;;;4994027;28;20893;-46
2021/08/30 11:57:43;;;;;;;6.03;3.30;;;14.50;55.80;;;;;;4994143;28;20661;-50
2021/08/30 12:00:14;;;;;;;4.53;2.78;;;14.40;55.80;;;;;;4994311;28;20252;-46
2021/08/30 12:02:45;;;;;;;4.45;2.88;;;14.50;55.80;;;;;;4994170;28;20233;-53
2021/08/30 12:05:15;;;;;;;4.28;2.67;;;14.50;55.80;;;;;;5009206;22;20257;-57
2021/08/30 12:07:46;;;;;;;4.05;2.72;;;14.40;55.80;;;;;;4993671;28;20283;-41
2021/08/30 12:10:16;;;;;;;3.90;2.92;;;14.40;55.80;;;;;;4994208;28;20618;-49
2021/08/30 12:13:08;;;;;;;4.10;2.75;;;14.40;55.80;;;;;;4994243;28;20689;-52
2021/08/30 12:15:38;;;;;;;3.92;2.60;;;14.40;55.80;;;;;;4994351;28;20273;-57
2021/08/30 12:18:09;;;;;;;4.63;2.90;;;14.40;55.80;;;;;;4994291;28;20256;-58
2021/08/30 12:20:41;;;;;;;5.95;2.88;;;14.40;55.80;;;;;;4993632;28;20285;-52
2021/08/30 12:23:12;;;;;;;2.97;2.55;;;14.40;55.80;;;;;;4993372;28;20725;-58
2021/08/30 12:25:43;;;;;;;4.07;2.60;;;14.40;55.80;;;;;;4993396;28;20244;-53
2021/08/30 12:28:15;;;;;;;5.43;2.63;;;14.40;55.90;;;;;;4992953;28;20264;-58
2021/08/30 12:30:46;;;;;;;4.75;2.90;;;14.40;55.90;;;;;;4993036;28;20241;-52
2021/08/30 12:33:19;;;;;;;5.85;3.28;;;14.40;55.90;;;;;;4993391;28;20229;-53
2021/08/30 12:35:50;;;;;;;3.63;2.55;;;14.30;55.80;;;;;;4993450;28;20198;-54
2021/08/30 12:38:21;;;;;;;4.20;2.65;;;14.30;55.80;;;;;;4993130;28;20245;-56
2021/08/30 12:40:52;;;;;;;4.93;2.60;;;14.30;55.80;;;;;;4993803;28;20643;-56
2021/08/30 12:43:24;;;;;;;5.18;3.20;;;14.30;55.80;;;;;;4993586;28;20237;-58
2021/08/30 12:45:55;;;;;;;4.40;2.92;;;14.30;55.80;;;;;;4994090;28;20723;-50
2021/08/30 12:48:27;;;;;;;4.68;3.05;;;14.30;55.80;;;;;;4994649;28;20713;-58
2021/08/30 12:50:58;;;;;;;4.05;2.85;;;14.30;55.80;;;;;;4992615;28;20566;-55
2021/08/30 12:53:28;;;;;;;5.80;3.13;;;14.30;55.80;;;;;;4992872;28;20190;-51
2021/08/30 12:55:59;;;;;;;5.50;3.08;;;14.30;55.90;;;;;;4992936;28;20244;-55
2021/08/30 12:58:31;;;;;;;4.40;2.90;;;14.30;55.80;;;;;;4992648;28;20260;-56
2021/08/30 13:01:02;;;;;;;4.50;3.05;;;14.30;55.80;;;;;;4992347;28;20264;-59
2021/08/30 13:03:32;;;;;;;4.88;3.08;;;14.30;55.80;;;;;;4992203;28;20276;-52
2021/08/30 13:06:03;;;;;;;3.95;2.70;;;14.30;55.80;;;;;;5005413;23;20268;-47
2021/08/30 13:08:33;;;;;;;5.32;3.33;;;14.30;55.80;;;;;;4992924;28;20279;-47
2021/08/30 13:11:03;;;;;;;4.38;3.00;;;14.30;55.80;;;;;;4992739;28;20245;-50